createdAt,value
2023-07-24T00:00:23.890Z,208.67
2023-07-24T00:00:55.769Z,210.67
2023-07-24T00:01:27.705Z,214.00
2023-07-24T00:01:59.782Z,212.67
2023-07-24T00:02:31.716Z,216.00
2023-07-24T00:03:04.267Z,219.67
2023-07-24T00:03:36.388Z,222.00
2023-07-24T00:04:08.298Z,221.00
2023-07-24T00:04:40.227Z,223.33
2023-07-24T00:05:12.152Z,234.00
2023-07-24T00:05:44.129Z,240.33
2023-07-24T00:06:16.069Z,264.33
2023-07-24T00:06:47.996Z,279.67
2023-07-24T00:07:19.944Z,286.67
2023-07-24T00:07:51.925Z,281.33
2023-07-24T00:08:23.809Z,277.33
2023-07-24T00:08:55.781Z,268.33
2023-07-24T00:09:27.718Z,263.33
2023-07-24T00:09:59.712Z,262.00
2023-07-24T00:10:31.685Z,260.33
2023-07-24T00:11:05.638Z,260.33
2023-07-24T00:11:37.548Z,270.00
2023-07-24T00:12:09.714Z,271.00
2023-07-24T00:12:41.760Z,265.67
2023-07-24T00:13:13.693Z,264.67
2023-07-24T00:13:46.349Z,272.33
2023-07-24T00:14:18.965Z,289.33
2023-07-24T00:14:51.000Z,298.33
2023-07-24T00:15:23.173Z,300.33
2023-07-24T00:15:55.048Z,308.67
2023-07-24T00:16:27.013Z,315.33
2023-07-24T00:16:59.203Z,320.00
2023-07-24T00:17:31.140Z,323.33
2023-07-24T00:18:03.143Z,324.33
2023-07-24T00:18:35.223Z,324.00
2023-07-24T00:19:07.202Z,324.00
2023-07-24T00:19:39.194Z,326.33
2023-07-24T00:20:11.357Z,330.67
2023-07-24T00:20:43.314Z,335.00
2023-07-24T00:21:15.276Z,324.00
2023-07-24T00:21:47.200Z,315.33
2023-07-24T00:22:19.119Z,312.33
2023-07-24T00:22:51.103Z,319.33
2023-07-24T00:23:23.044Z,322.33
2023-07-24T00:23:54.990Z,319.33
2023-07-24T00:24:26.973Z,318.67
2023-07-24T00:24:58.892Z,314.67
2023-07-24T00:25:31.278Z,313.00
2023-07-24T00:26:03.140Z,315.00
2023-07-24T00:26:35.004Z,316.67
2023-07-24T00:27:06.987Z,314.33
2023-07-24T00:27:38.961Z,315.00
2023-07-24T00:28:10.845Z,317.33
2023-07-24T00:28:42.771Z,320.33
2023-07-24T00:29:14.743Z,321.00
2023-07-24T00:29:46.684Z,321.67
2023-07-24T00:30:18.705Z,320.67
2023-07-24T00:30:50.728Z,323.33
2023-07-24T00:31:22.676Z,322.67
2023-07-24T00:31:54.637Z,322.00
2023-07-24T00:32:26.527Z,323.33
2023-07-24T00:32:58.652Z,329.67
2023-07-24T00:33:30.646Z,333.33
2023-07-24T00:34:02.625Z,334.67
2023-07-24T00:34:34.788Z,335.00
2023-07-24T00:35:07.379Z,336.00
2023-07-24T00:35:39.339Z,334.33
2023-07-24T00:36:11.271Z,335.67
2023-07-24T00:36:43.201Z,337.67
2023-07-24T00:37:15.136Z,339.00
2023-07-24T00:37:47.032Z,337.00
2023-07-24T00:38:18.928Z,334.33
2023-07-24T00:38:50.859Z,332.00
2023-07-24T00:39:22.878Z,327.67
2023-07-24T00:39:54.826Z,323.00
2023-07-24T00:40:26.828Z,321.00
2023-07-24T00:40:58.995Z,320.00
2023-07-24T00:41:30.950Z,320.00
2023-07-24T00:42:03.489Z,321.00
2023-07-24T00:42:35.406Z,321.67
2023-07-24T00:43:07.324Z,322.67
2023-07-24T00:43:39.306Z,323.00
2023-07-24T00:44:11.300Z,323.00
2023-07-24T00:44:43.189Z,323.67
2023-07-24T00:45:15.624Z,325.00
2023-07-24T00:45:49.339Z,329.33
2023-07-24T00:46:21.961Z,333.33
2023-07-24T00:46:54.795Z,333.00
2023-07-24T00:47:28.687Z,333.00
2023-07-24T00:48:01.672Z,332.00
2023-07-24T00:48:33.879Z,332.67
2023-07-24T00:49:06.540Z,332.67
2023-07-24T00:49:38.828Z,332.00
2023-07-24T00:50:13.761Z,332.00
2023-07-24T00:50:47.121Z,332.00
2023-07-24T00:51:19.581Z,332.00
2023-07-24T00:51:52.079Z,332.00
2023-07-24T00:52:24.246Z,332.00
2023-07-24T00:52:56.490Z,332.00
2023-07-24T00:53:28.801Z,333.33
2023-07-24T00:54:03.153Z,334.00
2023-07-24T00:54:35.854Z,334.67
2023-07-24T00:55:08.726Z,334.00
2023-07-24T00:55:41.736Z,333.33
2023-07-24T00:56:13.712Z,332.00
2023-07-24T00:56:46.518Z,329.00
2023-07-24T00:57:18.599Z,326.67
2023-07-24T00:57:51.247Z,325.67
2023-07-24T00:58:23.782Z,325.33
2023-07-24T00:58:59.520Z,326.00
2023-07-24T00:59:32.155Z,326.00
2023-07-24T01:00:05.089Z,319.33
2023-07-24T01:00:39.484Z,310.67
2023-07-24T01:01:12.228Z,313.00
2023-07-24T01:01:45.461Z,314.67
2023-07-24T01:02:17.469Z,315.67
2023-07-24T01:02:49.850Z,317.00
2023-07-24T01:03:29.127Z,321.00
2023-07-24T01:04:04.598Z,325.00
2023-07-24T01:04:36.573Z,325.00
2023-07-24T01:05:10.092Z,327.33
2023-07-24T01:05:42.377Z,329.67
2023-07-24T01:06:14.350Z,325.33
2023-07-24T01:06:46.576Z,318.67
2023-07-24T01:07:18.684Z,307.33
2023-07-24T01:07:50.629Z,299.33
2023-07-24T01:08:22.576Z,304.00
2023-07-24T01:08:54.473Z,308.00
2023-07-24T01:09:26.457Z,310.00
2023-07-24T01:09:58.706Z,313.67
2023-07-24T01:10:30.788Z,316.33
2023-07-24T01:11:26.044Z,317.00
2023-07-24T01:12:04.022Z,311.67
2023-07-24T01:13:20.211Z,292.33
2023-07-24T01:13:59.077Z,286.33
2023-07-24T01:14:51.058Z,290.00
2023-07-24T01:15:35.401Z,290.67
2023-07-24T01:16:14.490Z,295.33
2023-07-24T01:16:49.837Z,298.33
2023-07-24T01:17:26.030Z,308.67
2023-07-24T01:18:04.675Z,321.33
2023-07-24T01:18:40.371Z,326.67
2023-07-24T01:19:39.087Z,329.00
2023-07-24T01:20:14.089Z,330.00
2023-07-24T01:20:52.560Z,323.67
2023-07-24T01:21:51.356Z,296.00
2023-07-24T01:22:29.112Z,263.67
2023-07-24T01:23:35.064Z,250.00
2023-07-24T01:24:49.272Z,213.67
2023-07-24T01:25:37.969Z,264.33
2023-07-24T01:26:10.939Z,262.67
2023-07-24T01:26:43.342Z,242.00
2023-07-24T01:27:28.053Z,232.00
2023-07-24T01:27:59.987Z,227.00
2023-07-24T01:28:32.024Z,222.00
2023-07-24T01:29:03.891Z,220.67
2023-07-24T01:29:36.200Z,227.00
2023-07-24T01:30:08.802Z,229.67
2023-07-24T01:30:40.813Z,233.67
2023-07-24T01:31:13.041Z,246.67
2023-07-24T01:31:45.056Z,250.00
2023-07-24T01:32:17.091Z,272.00
2023-07-24T01:32:50.379Z,296.00
2023-07-24T01:33:23.468Z,305.67
2023-07-24T01:33:55.457Z,308.33
2023-07-24T01:34:27.470Z,306.33
2023-07-24T01:34:59.369Z,306.67
2023-07-24T01:35:33.216Z,306.33
2023-07-24T01:36:06.988Z,302.00
2023-07-24T01:36:39.244Z,298.00
2023-07-24T01:37:13.823Z,299.00
2023-07-24T01:37:48.173Z,296.67
2023-07-24T01:38:20.304Z,294.00
2023-07-24T01:38:52.746Z,297.00
2023-07-24T01:39:24.965Z,301.00
2023-07-24T01:39:58.413Z,305.67
2023-07-24T01:40:31.303Z,308.00
2023-07-24T01:41:05.088Z,309.00
2023-07-24T01:41:37.455Z,308.67
2023-07-24T01:42:10.403Z,309.00
2023-07-24T01:42:42.778Z,309.00
2023-07-24T01:43:15.536Z,308.00
2023-07-24T01:43:48.153Z,308.00
2023-07-24T01:44:20.253Z,310.33
2023-07-24T01:44:56.445Z,315.67
2023-07-24T01:45:28.377Z,319.00
2023-07-24T01:46:00.402Z,320.00
2023-07-24T01:46:32.471Z,320.00
2023-07-24T01:47:05.200Z,319.00
2023-07-24T01:47:37.203Z,318.33
2023-07-24T01:48:09.246Z,318.67
2023-07-24T01:48:41.249Z,320.33
2023-07-24T01:49:13.213Z,318.67
2023-07-24T01:49:45.204Z,301.33
2023-07-24T01:50:17.262Z,297.00
2023-07-24T01:50:49.319Z,298.00
2023-07-24T01:51:21.191Z,297.00
2023-07-24T01:51:53.104Z,280.33
2023-07-24T01:52:25.319Z,264.33
2023-07-24T01:52:57.191Z,233.33
2023-07-24T01:53:29.072Z,211.67
2023-07-24T01:54:01.003Z,205.67
2023-07-24T01:54:32.908Z,192.33
2023-07-24T01:55:05.286Z,175.33
2023-07-24T01:55:37.312Z,178.00
2023-07-24T01:56:09.276Z,186.67
2023-07-24T01:56:41.298Z,212.00
2023-07-24T01:57:13.324Z,240.00
2023-07-24T01:57:45.315Z,246.33
2023-07-24T01:58:17.200Z,264.00
2023-07-24T01:58:49.152Z,278.33
2023-07-24T01:59:21.111Z,268.67
2023-07-24T01:59:53.093Z,256.67
2023-07-24T02:00:25.028Z,247.00
2023-07-24T02:00:57.560Z,232.33
2023-07-24T02:01:29.480Z,234.33
2023-07-24T02:02:01.416Z,226.33
2023-07-24T02:02:33.394Z,198.33
2023-07-24T02:03:05.452Z,176.67
2023-07-24T02:03:37.487Z,167.00
2023-07-24T02:04:09.407Z,160.00
2023-07-24T02:04:41.421Z,154.00
2023-07-24T02:05:13.587Z,147.67
2023-07-24T02:05:51.680Z,143.67
2023-07-24T02:06:23.710Z,137.00
2023-07-24T02:06:55.671Z,128.67
2023-07-24T02:07:27.627Z,122.00
2023-07-24T02:07:59.559Z,120.00
2023-07-24T02:08:31.492Z,119.00
2023-07-24T02:09:03.457Z,117.67
2023-07-24T02:09:35.959Z,116.00
2023-07-24T02:10:08.537Z,114.00
2023-07-24T02:10:40.649Z,119.00
2023-07-24T02:11:12.579Z,148.67
2023-07-24T02:11:44.511Z,162.00
2023-07-24T02:12:16.439Z,184.67
2023-07-24T02:12:48.426Z,197.00
2023-07-24T02:13:20.381Z,191.00
2023-07-24T02:13:52.332Z,182.00
2023-07-24T02:14:25.535Z,170.67
2023-07-24T02:14:58.492Z,200.67
2023-07-24T02:15:30.508Z,242.67
2023-07-24T02:16:02.507Z,256.33
2023-07-24T02:16:34.696Z,256.67
2023-07-24T02:17:06.845Z,255.67
2023-07-24T02:17:39.743Z,265.33
2023-07-24T02:18:11.786Z,270.67
2023-07-24T02:18:44.424Z,270.33
2023-07-24T02:19:16.297Z,269.67
2023-07-24T02:19:48.268Z,271.67
2023-07-24T02:20:20.159Z,275.67
2023-07-24T02:20:52.634Z,282.67
2023-07-24T02:21:24.563Z,288.00
2023-07-24T02:21:56.465Z,283.67
2023-07-24T02:22:28.417Z,263.67
2023-07-24T02:23:00.284Z,249.00
2023-07-24T02:23:32.218Z,249.00
2023-07-24T02:24:04.371Z,263.00
2023-07-24T02:24:36.454Z,277.33
2023-07-24T02:25:08.896Z,287.33
2023-07-24T02:25:40.813Z,292.67
2023-07-24T02:26:12.778Z,295.67
2023-07-24T02:26:44.709Z,294.33
2023-07-24T02:27:29.903Z,294.00
2023-07-24T02:28:01.821Z,284.00
2023-07-24T02:28:33.834Z,277.00
2023-07-24T02:29:05.852Z,271.33
2023-07-24T02:29:37.888Z,271.33
2023-07-24T02:30:10.090Z,274.00
2023-07-24T02:30:42.132Z,270.67
2023-07-24T02:31:14.180Z,268.67
2023-07-24T02:31:46.145Z,260.67
2023-07-24T02:32:18.123Z,245.67
2023-07-24T02:32:50.120Z,224.67
2023-07-24T02:33:22.130Z,214.00
2023-07-24T02:33:54.058Z,215.00
2023-07-24T02:34:27.544Z,217.33
2023-07-24T02:34:59.457Z,219.67
2023-07-24T02:35:31.354Z,220.00
2023-07-24T02:36:03.382Z,228.33
2023-07-24T02:36:35.341Z,235.33
2023-07-24T02:37:07.305Z,244.67
2023-07-24T02:37:39.232Z,255.33
2023-07-24T02:38:11.322Z,265.00
2023-07-24T02:38:43.245Z,276.67
2023-07-24T02:39:15.145Z,276.67
2023-07-24T02:39:47.789Z,270.67
2023-07-24T02:40:19.707Z,266.67
2023-07-24T02:40:51.670Z,269.67
2023-07-24T02:41:23.588Z,266.33
2023-07-24T02:41:55.491Z,265.33
2023-07-24T02:42:27.373Z,264.33
2023-07-24T02:42:59.290Z,263.33
2023-07-24T02:43:31.173Z,262.67
2023-07-24T02:44:05.150Z,259.67
2023-07-24T02:44:37.413Z,252.00
2023-07-24T02:45:12.239Z,241.67
2023-07-24T02:45:44.263Z,232.00
2023-07-24T02:46:16.273Z,227.33
2023-07-24T02:46:48.211Z,223.33
2023-07-24T02:47:20.116Z,223.67
2023-07-24T02:47:52.030Z,226.33
2023-07-24T02:48:24.054Z,229.00
2023-07-24T02:48:56.043Z,230.33
2023-07-24T02:49:27.954Z,230.67
2023-07-24T02:49:59.912Z,231.33
2023-07-24T02:50:31.804Z,234.33
2023-07-24T02:51:03.840Z,252.00
2023-07-24T02:51:35.761Z,281.67
2023-07-24T02:52:07.668Z,299.00
2023-07-24T02:52:39.566Z,302.67
2023-07-24T02:53:12.028Z,297.33
2023-07-24T02:53:44.049Z,300.67
2023-07-24T02:54:15.965Z,296.67
2023-07-24T02:54:47.913Z,288.33
2023-07-24T02:55:19.862Z,296.33
2023-07-24T02:55:51.797Z,296.00
2023-07-24T02:56:23.952Z,289.67
2023-07-24T02:56:55.842Z,284.00
2023-07-24T02:57:27.759Z,281.33
2023-07-24T02:57:59.770Z,277.67
2023-07-24T02:58:31.691Z,270.67
2023-07-24T02:59:03.565Z,265.67
2023-07-24T02:59:36.544Z,260.00
2023-07-24T03:00:09.068Z,256.33
2023-07-24T03:00:41.658Z,256.33
2023-07-24T03:01:15.368Z,257.33
2023-07-24T03:01:47.311Z,258.33
2023-07-24T03:02:19.209Z,261.67
2023-07-24T03:02:51.822Z,264.00
2023-07-24T03:03:23.883Z,264.00
2023-07-24T03:03:55.963Z,260.33
2023-07-24T03:04:27.960Z,247.33
2023-07-24T03:04:59.983Z,237.33
2023-07-24T03:05:32.586Z,231.33
2023-07-24T03:06:04.562Z,225.33
2023-07-24T03:06:37.257Z,219.33
2023-07-24T03:07:09.155Z,214.00
2023-07-24T03:07:41.115Z,212.33
2023-07-24T03:08:13.027Z,209.33
2023-07-24T03:08:44.894Z,211.00
2023-07-24T03:09:16.817Z,213.00
2023-07-24T03:09:48.827Z,222.33
2023-07-24T03:10:20.759Z,230.33
2023-07-24T03:10:52.718Z,249.67
2023-07-24T03:11:24.633Z,268.00
2023-07-24T03:11:56.562Z,276.00
2023-07-24T03:12:28.509Z,279.33
2023-07-24T03:13:00.480Z,281.00
2023-07-24T03:13:32.576Z,276.67
2023-07-24T03:14:04.502Z,270.33
2023-07-24T03:14:36.378Z,268.00
2023-07-24T03:15:08.832Z,266.67
2023-07-24T03:15:40.818Z,265.33
2023-07-24T03:16:12.929Z,265.00
2023-07-24T03:16:44.794Z,265.00
2023-07-24T03:17:16.706Z,265.00
2023-07-24T03:17:48.709Z,265.67
2023-07-24T03:18:21.031Z,270.33
2023-07-24T03:18:52.976Z,271.33
2023-07-24T03:19:24.948Z,269.33
2023-07-24T03:19:56.829Z,269.00
2023-07-24T03:20:28.769Z,268.00
2023-07-24T03:21:00.870Z,268.00
2023-07-24T03:21:32.836Z,270.33
2023-07-24T03:22:04.902Z,279.67
2023-07-24T03:22:36.838Z,279.33
2023-07-24T03:23:08.792Z,275.67
2023-07-24T03:23:40.717Z,272.00
2023-07-24T03:24:12.701Z,266.00
2023-07-24T03:24:44.740Z,263.67
2023-07-24T03:25:16.741Z,263.00
2023-07-24T03:25:48.773Z,262.33
2023-07-24T03:26:20.689Z,262.00
2023-07-24T03:26:52.564Z,262.00
2023-07-24T03:27:24.479Z,262.00
2023-07-24T03:27:56.393Z,262.00
2023-07-24T03:28:28.367Z,262.00
2023-07-24T03:29:01.434Z,262.00
2023-07-24T03:29:33.418Z,262.00
2023-07-24T03:30:05.990Z,261.00
2023-07-24T03:30:38.083Z,261.00
2023-07-24T03:31:10.159Z,261.00
2023-07-24T03:31:42.150Z,261.00
2023-07-24T03:32:15.538Z,261.00
2023-07-24T03:32:47.565Z,261.67
2023-07-24T03:33:19.530Z,262.67
2023-07-24T03:33:51.457Z,264.33
2023-07-24T03:34:23.390Z,265.33
2023-07-24T03:34:55.310Z,266.00
2023-07-24T03:35:27.359Z,267.00
2023-07-24T03:35:59.227Z,268.33
2023-07-24T03:36:31.516Z,270.00
2023-07-24T03:37:03.831Z,273.67
2023-07-24T03:37:39.557Z,277.00
2023-07-24T03:38:11.486Z,282.00
2023-07-24T03:38:43.415Z,285.33
2023-07-24T03:39:15.378Z,286.00
2023-07-24T03:39:47.382Z,285.33
2023-07-24T03:40:19.312Z,284.33
2023-07-24T03:40:51.279Z,285.67
2023-07-24T03:41:23.225Z,286.00
2023-07-24T03:41:55.116Z,286.33
2023-07-24T03:42:28.718Z,286.00
2023-07-24T03:43:00.628Z,287.00
2023-07-24T03:43:32.618Z,289.00
2023-07-24T03:44:04.678Z,288.33
2023-07-24T03:44:36.635Z,288.00
2023-07-24T03:45:09.478Z,287.33
2023-07-24T03:45:41.433Z,289.00
2023-07-24T03:46:13.407Z,291.00
2023-07-24T03:46:45.360Z,292.00
2023-07-24T03:47:17.398Z,291.67
2023-07-24T03:47:49.308Z,292.00
2023-07-24T03:48:21.248Z,292.00
2023-07-24T03:48:53.481Z,292.00
2023-07-24T03:49:25.387Z,292.00
2023-07-24T03:49:57.656Z,292.00
2023-07-24T03:50:30.985Z,291.00
2023-07-24T03:51:02.959Z,292.00
2023-07-24T03:51:34.975Z,293.00
2023-07-24T03:52:06.949Z,293.33
2023-07-24T03:52:38.970Z,294.33
2023-07-24T03:53:10.906Z,295.00
2023-07-24T03:53:42.799Z,296.00
2023-07-24T03:54:14.685Z,297.67
2023-07-24T03:54:46.673Z,298.33
2023-07-24T03:55:18.632Z,299.67
2023-07-24T03:55:50.716Z,302.67
2023-07-24T03:56:22.595Z,309.00
2023-07-24T03:56:54.525Z,313.00
2023-07-24T03:57:26.476Z,314.00
2023-07-24T03:57:58.344Z,313.33
2023-07-24T03:58:30.226Z,314.00
2023-07-24T03:59:02.141Z,315.33
2023-07-24T03:59:34.120Z,316.33
2023-07-24T04:00:06.868Z,316.00
2023-07-24T04:00:38.916Z,316.33
2023-07-24T04:01:11.244Z,316.00
2023-07-24T04:01:43.212Z,315.67
2023-07-24T04:02:15.166Z,315.00
2023-07-24T04:02:48.187Z,314.33
2023-07-24T04:03:20.329Z,315.00
2023-07-24T04:03:53.541Z,315.00
2023-07-24T04:04:25.844Z,314.67
2023-07-24T04:04:57.804Z,314.00
2023-07-24T04:05:29.689Z,314.00
2023-07-24T04:06:02.006Z,314.00
2023-07-24T04:06:33.966Z,313.67
2023-07-24T04:07:06.828Z,313.00
2023-07-24T04:07:39.008Z,313.00
2023-07-24T04:08:11.043Z,312.67
2023-07-24T04:08:43.037Z,312.00
2023-07-24T04:09:17.625Z,311.67
2023-07-24T04:09:49.548Z,311.00
2023-07-24T04:10:21.476Z,310.33
2023-07-24T04:10:53.772Z,309.00
2023-07-24T04:11:25.744Z,307.67
2023-07-24T04:11:57.653Z,306.67
2023-07-24T04:12:30.811Z,305.67
2023-07-24T04:13:02.756Z,304.67
2023-07-24T04:13:34.688Z,304.00
2023-07-24T04:14:06.603Z,303.67
2023-07-24T04:14:38.487Z,303.00
2023-07-24T04:15:10.587Z,302.00
2023-07-24T04:15:42.945Z,302.00
2023-07-24T04:16:14.850Z,301.00
2023-07-24T04:16:47.116Z,300.33
2023-07-24T04:17:19.507Z,299.67
2023-07-24T04:17:51.479Z,299.00
2023-07-24T04:18:23.373Z,298.33
2023-07-24T04:18:55.276Z,298.00
2023-07-24T04:19:27.202Z,298.67
2023-07-24T04:19:59.173Z,299.00
2023-07-24T04:20:31.118Z,299.00
2023-07-24T04:21:03.306Z,299.00
2023-07-24T04:21:35.291Z,299.00
2023-07-24T04:22:07.173Z,299.00
2023-07-24T04:22:39.384Z,299.00
2023-07-24T04:23:11.331Z,299.00
2023-07-24T04:23:43.250Z,299.00
2023-07-24T04:24:15.213Z,299.33
2023-07-24T04:24:47.120Z,300.00
2023-07-24T04:25:19.140Z,300.00
2023-07-24T04:25:51.763Z,300.00
2023-07-24T04:26:23.733Z,300.00
2023-07-24T04:26:55.757Z,300.00
2023-07-24T04:27:27.801Z,300.00
2023-07-24T04:27:59.769Z,300.00
2023-07-24T04:28:31.713Z,300.67
2023-07-24T04:29:03.651Z,301.33
2023-07-24T04:29:35.604Z,302.00
2023-07-24T04:30:08.265Z,303.00
2023-07-24T04:30:40.490Z,303.00
2023-07-24T04:31:12.619Z,303.67
2023-07-24T04:31:44.583Z,304.00
2023-07-24T04:32:16.472Z,304.67
2023-07-24T04:32:48.381Z,305.00
2023-07-24T04:33:20.284Z,305.00
2023-07-24T04:33:52.203Z,305.67
2023-07-24T04:34:24.136Z,306.00
2023-07-24T04:34:56.140Z,306.33
2023-07-24T04:35:28.313Z,307.67
2023-07-24T04:36:00.318Z,308.00
2023-07-24T04:36:32.529Z,308.67
2023-07-24T04:37:04.942Z,309.00
2023-07-24T04:37:37.432Z,309.00
2023-07-24T04:38:09.466Z,309.33
2023-07-24T04:38:41.365Z,310.00
2023-07-24T04:39:13.265Z,310.00
2023-07-24T04:39:45.279Z,310.67
2023-07-24T04:40:17.267Z,310.33
2023-07-24T04:40:49.192Z,310.00
2023-07-24T04:41:21.098Z,309.67
2023-07-24T04:41:53.023Z,309.00
2023-07-24T04:42:25.012Z,308.67
2023-07-24T04:42:57.062Z,307.67
2023-07-24T04:43:29.794Z,306.33
2023-07-24T04:44:01.707Z,303.67
2023-07-24T04:44:33.722Z,298.33
2023-07-24T04:45:06.100Z,293.33
2023-07-24T04:45:38.011Z,291.33
2023-07-24T04:46:09.931Z,291.67
2023-07-24T04:46:41.868Z,292.00
2023-07-24T04:47:13.827Z,288.33
2023-07-24T04:47:45.842Z,283.00
2023-07-24T04:48:17.763Z,280.00
2023-07-24T04:48:49.700Z,281.33
2023-07-24T04:49:21.614Z,278.00
2023-07-24T04:49:53.531Z,276.33
2023-07-24T04:50:25.469Z,269.33
2023-07-24T04:50:58.150Z,262.67
2023-07-24T04:51:30.054Z,268.67
2023-07-24T04:52:02.000Z,272.00
2023-07-24T04:52:33.860Z,271.67
2023-07-24T04:53:05.740Z,270.67
2023-07-24T04:53:37.623Z,268.67
2023-07-24T04:54:09.964Z,268.67
2023-07-24T04:54:41.885Z,271.67
2023-07-24T04:55:13.873Z,272.67
2023-07-24T04:55:47.376Z,273.67
2023-07-24T04:56:19.314Z,274.00
2023-07-24T04:56:51.336Z,275.00
2023-07-24T04:57:23.375Z,274.00
2023-07-24T04:57:55.288Z,274.00
2023-07-24T04:58:27.301Z,273.67
2023-07-24T04:58:59.211Z,273.00
2023-07-24T04:59:31.100Z,273.00
2023-07-24T05:00:03.283Z,273.00
2023-07-24T05:00:35.217Z,273.00
2023-07-24T05:01:07.167Z,273.00
2023-07-24T05:01:39.107Z,274.00
2023-07-24T05:02:11.059Z,272.33
2023-07-24T05:02:43.097Z,271.00
2023-07-24T05:03:17.800Z,271.00
2023-07-24T05:03:49.725Z,271.00
2023-07-24T05:04:21.632Z,270.67
2023-07-24T05:04:53.629Z,263.67
2023-07-24T05:05:25.610Z,255.00
2023-07-24T05:05:57.873Z,250.67
2023-07-24T05:06:30.222Z,249.33
2023-07-24T05:07:02.402Z,251.00
2023-07-24T05:07:34.392Z,253.00
2023-07-24T05:08:07.122Z,253.00
2023-07-24T05:08:39.043Z,253.67
2023-07-24T05:09:10.935Z,254.67
2023-07-24T05:09:42.901Z,254.00
2023-07-24T05:10:14.951Z,253.67
2023-07-24T05:10:46.900Z,253.00
2023-07-24T05:11:18.783Z,252.67
2023-07-24T05:11:50.638Z,250.00
2023-07-24T05:12:22.514Z,244.33
2023-07-24T05:12:57.768Z,240.33
2023-07-24T05:13:29.704Z,240.67
2023-07-24T05:14:01.599Z,239.00
2023-07-24T05:14:33.496Z,237.33
2023-07-24T05:15:05.990Z,237.67
2023-07-24T05:15:37.920Z,240.00
2023-07-24T05:16:09.981Z,241.67
2023-07-24T05:16:42.332Z,242.67
2023-07-24T05:17:14.609Z,243.00
2023-07-24T05:17:46.503Z,243.00
2023-07-24T05:18:18.555Z,243.67
2023-07-24T05:18:50.417Z,244.00
2023-07-24T05:19:22.309Z,245.00
2023-07-24T05:19:54.256Z,245.00
2023-07-24T05:20:26.168Z,245.00
2023-07-24T05:20:58.064Z,243.00
2023-07-24T05:21:30.202Z,242.00
2023-07-24T05:22:02.143Z,238.67
2023-07-24T05:22:34.090Z,237.33
2023-07-24T05:23:06.054Z,238.33
2023-07-24T05:23:37.930Z,239.00
2023-07-24T05:24:09.909Z,239.67
2023-07-24T05:24:42.246Z,240.33
2023-07-24T05:25:14.354Z,242.00
2023-07-24T05:25:46.336Z,243.67
2023-07-24T05:26:18.319Z,245.00
2023-07-24T05:26:50.281Z,245.00
2023-07-24T05:27:22.314Z,245.00
2023-07-24T05:27:54.348Z,245.67
2023-07-24T05:28:28.645Z,246.00
2023-07-24T05:29:00.587Z,246.33
2023-07-24T05:29:35.771Z,248.33
2023-07-24T05:30:08.132Z,249.67
2023-07-24T05:30:40.062Z,250.00
2023-07-24T05:31:12.091Z,250.00
2023-07-24T05:31:44.063Z,250.00
2023-07-24T05:32:16.042Z,250.00
2023-07-24T05:32:48.077Z,250.00
2023-07-24T05:33:20.121Z,250.00
2023-07-24T05:33:51.991Z,250.00
2023-07-24T05:34:23.940Z,250.00
2023-07-24T05:34:55.814Z,249.00
2023-07-24T05:35:28.125Z,249.00
2023-07-24T05:36:04.091Z,249.67
2023-07-24T05:36:35.988Z,251.00
2023-07-24T05:37:07.927Z,250.33
2023-07-24T05:37:39.818Z,250.00
2023-07-24T05:38:11.981Z,249.00
2023-07-24T05:38:43.908Z,248.33
2023-07-24T05:39:15.839Z,247.33
2023-07-24T05:39:47.887Z,247.00
2023-07-24T05:40:19.850Z,247.00
2023-07-24T05:41:03.198Z,247.00
2023-07-24T05:41:35.175Z,247.00
2023-07-24T05:42:07.190Z,247.00
2023-07-24T05:42:42.785Z,247.00
2023-07-24T05:43:14.881Z,247.33
2023-07-24T05:43:46.905Z,250.00
2023-07-24T05:44:18.830Z,252.67
2023-07-24T05:44:50.727Z,253.00
2023-07-24T05:45:22.676Z,253.00
2023-07-24T05:45:56.108Z,253.00
2023-07-24T05:46:28.214Z,253.33
2023-07-24T05:47:00.459Z,254.00
2023-07-24T05:47:32.430Z,253.33
2023-07-24T05:48:04.540Z,253.00
2023-07-24T05:48:36.511Z,252.00
2023-07-24T05:49:08.558Z,250.67
2023-07-24T05:49:42.679Z,250.00
2023-07-24T05:50:15.169Z,249.00
2023-07-24T05:50:47.428Z,248.33
2023-07-24T05:51:19.337Z,248.00
2023-07-24T05:51:51.402Z,249.00
2023-07-24T05:52:23.378Z,248.33
2023-07-24T05:52:55.266Z,248.00
2023-07-24T05:53:27.188Z,248.00
2023-07-24T05:53:59.123Z,248.00
2023-07-24T05:54:31.025Z,248.00
2023-07-24T05:55:04.259Z,248.00
2023-07-24T05:55:36.249Z,249.00
2023-07-24T05:56:08.269Z,248.67
2023-07-24T05:56:41.035Z,248.33
2023-07-24T05:57:13.043Z,249.00
2023-07-24T05:57:46.023Z,249.00
2023-07-24T05:58:17.935Z,249.00
2023-07-24T05:58:50.932Z,249.00
2023-07-24T05:59:22.846Z,249.00
2023-07-24T05:59:54.843Z,249.00
2023-07-24T06:00:26.785Z,250.00
2023-07-24T06:00:59.363Z,250.67
2023-07-24T06:01:31.375Z,251.67
2023-07-24T06:02:03.357Z,252.00
2023-07-24T06:02:35.306Z,252.00
2023-07-24T06:03:08.625Z,252.33
2023-07-24T06:03:40.901Z,253.33
2023-07-24T06:04:13.064Z,254.33
2023-07-24T06:04:45.134Z,255.33
2023-07-24T06:05:17.453Z,255.33
2023-07-24T06:05:56.082Z,255.00
2023-07-24T06:06:29.758Z,254.67
2023-07-24T06:07:01.896Z,254.00
2023-07-24T06:07:33.851Z,254.00
2023-07-24T06:08:05.847Z,254.00
2023-07-24T06:08:37.724Z,254.00
2023-07-24T06:09:09.614Z,254.00
2023-07-24T06:09:41.535Z,254.00
2023-07-24T06:10:13.830Z,252.00
2023-07-24T06:10:49.006Z,249.00
2023-07-24T06:11:21.141Z,246.33
2023-07-24T06:11:53.074Z,245.00
2023-07-24T06:12:25.110Z,243.00
2023-07-24T06:12:57.059Z,243.67
2023-07-24T06:13:28.946Z,242.67
2023-07-24T06:14:00.816Z,240.67
2023-07-24T06:14:32.672Z,239.00
2023-07-24T06:15:05.534Z,238.00
2023-07-24T06:15:37.495Z,238.00
2023-07-24T06:16:09.580Z,238.00
2023-07-24T06:16:41.789Z,238.00
2023-07-24T06:17:13.964Z,238.00
2023-07-24T06:17:45.962Z,238.00
2023-07-24T06:18:17.938Z,237.67
2023-07-24T06:18:49.843Z,237.33
2023-07-24T06:19:22.504Z,238.00
2023-07-24T06:19:54.451Z,237.33
2023-07-24T06:20:26.312Z,236.67
2023-07-24T06:20:58.229Z,236.00
2023-07-24T06:21:30.210Z,236.33
2023-07-24T06:22:02.094Z,236.00
2023-07-24T06:22:34.072Z,236.67
2023-07-24T06:23:06.218Z,237.00
2023-07-24T06:23:38.176Z,237.00
2023-07-24T06:24:13.375Z,237.00
2023-07-24T06:24:45.384Z,237.00
2023-07-24T06:25:17.450Z,237.00
2023-07-24T06:25:49.377Z,237.33
2023-07-24T06:26:21.312Z,238.00
2023-07-24T06:26:53.260Z,237.00
2023-07-24T06:27:25.290Z,236.33
2023-07-24T06:27:57.192Z,236.00
2023-07-24T06:28:30.014Z,234.00
2023-07-24T06:29:01.927Z,231.67
2023-07-24T06:29:34.289Z,230.67
2023-07-24T06:30:14.980Z,228.67
2023-07-24T06:30:48.157Z,228.00
2023-07-24T06:31:20.084Z,227.67
2023-07-24T06:31:52.049Z,227.00
2023-07-24T06:32:24.095Z,227.00
2023-07-24T06:32:56.290Z,227.33
2023-07-24T06:33:28.231Z,228.00
2023-07-24T06:34:00.171Z,228.00
2023-07-24T06:34:32.064Z,228.00
2023-07-24T06:35:04.075Z,227.67
2023-07-24T06:35:36.749Z,221.33
2023-07-24T06:36:14.546Z,206.33
2023-07-24T06:36:46.544Z,195.67
2023-07-24T06:37:22.721Z,191.33
2023-07-24T06:37:54.913Z,189.33
2023-07-24T06:38:26.828Z,188.00
2023-07-24T06:38:58.750Z,186.67
2023-07-24T06:39:30.737Z,188.00
2023-07-24T06:40:02.857Z,191.67
2023-07-24T06:40:34.754Z,189.00
2023-07-24T06:41:07.590Z,187.33
2023-07-24T06:41:39.576Z,184.67
2023-07-24T06:42:11.556Z,182.00
2023-07-24T06:42:43.524Z,187.00
2023-07-24T06:43:15.498Z,192.00
2023-07-24T06:43:47.400Z,191.00
2023-07-24T06:44:19.402Z,185.00
2023-07-24T06:44:51.373Z,179.00
2023-07-24T06:45:23.324Z,176.00
2023-07-24T06:45:55.359Z,176.00
2023-07-24T06:46:27.410Z,175.67
2023-07-24T06:46:59.464Z,172.67
2023-07-24T06:47:31.354Z,171.00
2023-07-24T06:48:03.308Z,171.00